Time;durP1;ratioP1;P1;durP2;ratioP2;P2;SDS_P1;SDS_P2;PMS_P1;PMS_P2;Temp;Humidity;BMP_temperature;BMP_pressure;BME280_temperature;BME280_humidity;BME280_pressure;Samples;Min_cycle;Max_cycle;Signal;HPM_P1;HPM_P2
2021/07/05 00:00:33;;;;;;;2.72;2.00;;;;;;;;;;5200215;27;20089;-64
2021/07/05 00:02:59;;;;;;;2.80;2.17;;;;;;;;;;5200256;27;20271;-65
2021/07/05 00:05:25;;;;;;;2.62;2.00;;;;;;;;;;5200309;27;20094;-64
2021/07/05 00:07:51;;;;;;;2.15;1.85;;;;;;;;;;5200157;27;20211;-65
2021/07/05 00:10:21;;;;;;;3.55;2.20;;;;;;;;;;5200105;27;20106;-66
2021/07/05 00:12:48;;;;;;;2.05;1.85;;;;;;;;;;5200227;27;20424;-66
2021/07/05 00:15:19;;;;;;;2.55;2.20;;;;;;;;;;5200173;27;20085;-66
2021/07/05 00:17:45;;;;;;;2.53;2.00;;;;;;;;;;5200264;27;20117;-66
2021/07/05 00:20:11;;;;;;;2.37;1.95;;;;;;;;;;5200383;27;20100;-66
2021/07/05 00:22:37;;;;;;;2.90;2.10;;;;;;;;;;5200322;27;20101;-66
2021/07/05 00:25:04;;;;;;;2.22;2.03;;;;;;;;;;5199930;27;20507;-66
2021/07/05 00:27:30;;;;;;;2.83;2.10;;;;;;;;;;5200143;27;20168;-66
2021/07/05 00:29:56;;;;;;;2.30;2.10;;;;;;;;;;5181353;27;20495;-66
2021/07/05 00:32:22;;;;;;;2.30;2.10;;;;;;;;;;5200403;27;20203;-66
2021/07/05 00:34:48;;;;;;;4.32;1.98;;;;;;;;;;5199961;27;20520;-66
2021/07/05 00:37:13;;;;;;;2.28;2.08;;;;;;;;;;5200342;27;20100;-66
2021/07/05 00:39:39;;;;;;;2.40;2.00;;;;;;;;;;5199986;27;20508;-66
2021/07/05 00:42:05;;;;;;;1.73;1.48;;;;;;;;;;5200000;27;20507;-66
2021/07/05 00:44:31;;;;;;;2.50;2.30;;;;;;;;;;5200202;27;20270;-66
2021/07/05 00:46:57;;;;;;;7.60;2.10;;;;;;;;;;5200082;27;20610;-66
2021/07/05 00:49:23;;;;;;;2.00;1.83;;;;;;;;;;5200384;27;20488;-66
2021/07/05 00:51:49;;;;;;;3.47;2.40;;;;;;;;;;5201347;27;20196;-66
2021/07/05 00:54:15;;;;;;;3.58;2.03;;;;;;;;;;5201233;27;20085;-70
2021/07/05 00:56:42;;;;;;;2.85;2.33;;;;;;;;;;5182002;27;20101;-68
2021/07/05 00:59:07;;;;;;;2.00;1.80;;;;;;;;;;5164703;27;20156;-68
2021/07/05 01:01:33;;;;;;;1.92;1.70;;;;;;;;;;5164602;27;20097;-68
2021/07/05 01:03:59;;;;;;;3.40;1.70;;;;;;;;;;5201266;27;20472;-68
2021/07/05 01:06:26;;;;;;;2.42;1.80;;;;;;;;;;5201100;27;20583;-68
2021/07/05 01:08:52;;;;;;;2.15;1.77;;;;;;;;;;5201007;27;20096;-68
2021/07/05 01:11:20;;;;;;;1.92;1.70;;;;;;;;;;5181874;27;20423;-68
2021/07/05 01:13:46;;;;;;;2.17;1.75;;;;;;;;;;5165071;27;20168;-69
2021/07/05 01:16:12;;;;;;;3.08;1.83;;;;;;;;;;5200794;27;20186;-69
2021/07/05 01:18:38;;;;;;;1.75;1.65;;;;;;;;;;5181856;27;20380;-69
2021/07/05 01:21:04;;;;;;;1.75;1.65;;;;;;;;;;5200952;27;20634;-69
2021/07/05 01:23:29;;;;;;;1.70;1.60;;;;;;;;;;5201185;27;20528;-69
2021/07/05 01:25:55;;;;;;;7.18;2.30;;;;;;;;;;5181737;27;20171;-70
2021/07/05 01:28:21;;;;;;;2.00;1.80;;;;;;;;;;5201254;27;20139;-64
2021/07/05 01:30:47;;;;;;;1.67;1.58;;;;;;;;;;5200966;27;20124;-64
2021/07/05 01:33:15;;;;;;;2.12;1.75;;;;;;;;;;5181825;27;20100;-65
2021/07/05 01:35:41;;;;;;;1.67;1.58;;;;;;;;;;5182347;27;20421;-64
2021/07/05 01:38:13;;;;;;;2.08;1.80;;;;;;;;;;5182079;27;20073;-65
2021/07/05 01:40:38;;;;;;;2.40;1.87;;;;;;;;;;5200984;27;20129;-64
2021/07/05 01:43:04;;;;;;;2.15;1.95;;;;;;;;;;5200958;27;20093;-65
2021/07/05 01:45:32;;;;;;;1.73;1.60;;;;;;;;;;5201112;27;20511;-70
2021/07/05 01:47:58;;;;;;;1.60;1.50;;;;;;;;;;5200975;27;20155;-64
2021/07/05 01:50:24;;;;;;;2.05;1.67;;;;;;;;;;5201098;27;20069;-65
2021/07/05 01:52:50;;;;;;;1.67;1.58;;;;;;;;;;5200814;27;20104;-65
2021/07/05 01:55:16;;;;;;;1.70;1.60;;;;;;;;;;5164353;27;20233;-65
2021/07/05 01:57:42;;;;;;;1.70;1.60;;;;;;;;;;5181767;27;20507;-65
2021/07/05 02:00:11;;;;;;;1.62;1.52;;;;;;;;;;5200863;27;20177;-64
2021/07/05 02:02:37;;;;;;;1.42;1.33;;;;;;;;;;5200712;27;20100;-65
2021/07/05 02:05:08;;;;;;;1.70;1.60;;;;;;;;;;5200949;27;20165;-65
2021/07/05 02:07:34;;;;;;;1.90;1.80;;;;;;;;;;5200896;27;20074;-64
2021/07/05 02:10:00;;;;;;;1.73;1.62;;;;;;;;;;5200580;27;20577;-69
2021/07/05 02:12:26;;;;;;;1.80;1.70;;;;;;;;;;5181608;27;20531;-69
2021/07/05 02:14:52;;;;;;;1.70;1.60;;;;;;;;;;5163910;27;20106;-69
2021/07/05 02:17:18;;;;;;;1.80;1.70;;;;;;;;;;5200671;27;20092;-73
2021/07/05 02:19:43;;;;;;;1.65;1.55;;;;;;;;;;5200702;27;20081;-70
2021/07/05 02:22:09;;;;;;;2.22;1.70;;;;;;;;;;5200471;27;20587;-70
2021/07/05 02:24:35;;;;;;;1.90;1.70;;;;;;;;;;5200379;27;20195;-70
2021/07/05 02:27:01;;;;;;;11.68;2.12;;;;;;;;;;5181304;27;20519;-70
2021/07/05 02:29:27;;;;;;;1.92;1.80;;;;;;;;;;5200939;27;20412;-71
2021/07/05 02:31:53;;;;;;;2.40;1.85;;;;;;;;;;5200565;27;20090;-70
2021/07/05 02:34:19;;;;;;;2.40;1.67;;;;;;;;;;5200880;27;20212;-71
2021/07/05 02:36:45;;;;;;;2.40;1.80;;;;;;;;;;5200532;27;20114;-71
2021/07/05 02:39:10;;;;;;;4.00;1.80;;;;;;;;;;5181253;27;20473;-71
2021/07/05 02:41:36;;;;;;;1.77;1.67;;;;;;;;;;5200520;27;20104;-74
2021/07/05 02:44:03;;;;;;;2.70;2.00;;;;;;;;;;5200578;27;20165;-71
2021/07/05 02:46:28;;;;;;;2.17;1.90;;;;;;;;;;5181700;27;20086;-74
2021/07/05 02:48:55;;;;;;;2.00;1.50;;;;;;;;;;5200439;27;20167;-74
2021/07/05 02:51:21;;;;;;;2.30;2.00;;;;;;;;;;5200638;27;20089;-75
2021/07/05 02:53:46;;;;;;;3.35;1.90;;;;;;;;;;5200505;27;20193;-70
2021/07/05 02:56:12;;;;;;;2.30;1.87;;;;;;;;;;5200306;27;20113;-70
2021/07/05 02:58:38;;;;;;;2.10;1.90;;;;;;;;;;5200758;27;20229;-71
2021/07/05 03:01:07;;;;;;;2.22;2.03;;;;;;;;;;5181607;27;20405;-70
2021/07/05 03:03:33;;;;;;;2.20;1.98;;;;;;;;;;5181477;27;20488;-75
2021/07/05 03:05:59;;;;;;;2.33;1.90;;;;;;;;;;5199107;27;20089;-74
2021/07/05 03:08:25;;;;;;;2.42;2.00;;;;;;;;;;5198350;27;20108;-75
2021/07/05 03:10:51;;;;;;;2.33;2.12;;;;;;;;;;5198495;27;20172;-68
2021/07/05 03:13:17;;;;;;;2.50;2.03;;;;;;;;;;5198945;27;20101;-66
2021/07/05 03:15:44;;;;;;;1.85;1.75;;;;;;;;;;5179444;27;20179;-66
2021/07/05 03:18:10;;;;;;;2.80;2.10;;;;;;;;;;5162604;27;20096;-68
2021/07/05 03:20:38;;;;;;;4.22;2.10;;;;;;;;;;5199343;27;20085;-69
2021/07/05 03:23:04;;;;;;;2.20;2.00;;;;;;;;;;5180943;27;20148;-67
2021/07/05 03:25:31;;;;;;;2.75;2.03;;;;;;;;;;5200219;27;20077;-67
2021/07/05 03:27:57;;;;;;;4.32;2.42;;;;;;;;;;5180905;27;20069;-67
2021/07/05 03:30:24;;;;;;;2.30;2.08;;;;;;;;;;5163826;27;20153;-70
2021/07/05 03:32:50;;;;;;;2.55;2.10;;;;;;;;;;5164325;27;20070;-75
2021/07/05 03:35:16;;;;;;;2.12;1.95;;;;;;;;;;5165429;27;20058;-74
2021/07/05 03:37:42;;;;;;;6.57;2.92;;;;;;;;;;5163665;27;20085;-70
2021/07/05 03:40:10;;;;;;;2.35;2.00;;;;;;;;;;5200020;27;20488;-70
2021/07/05 03:42:35;;;;;;;3.08;2.12;;;;;;;;;;5181162;27;20097;-70
2021/07/05 03:45:01;;;;;;;2.28;1.98;;;;;;;;;;5181000;27;20202;-70
2021/07/05 03:47:27;;;;;;;2.08;1.70;;;;;;;;;;5200710;27;20090;-70
2021/07/05 03:49:53;;;;;;;5.57;2.05;;;;;;;;;;5200399;27;20186;-70
2021/07/05 03:52:19;;;;;;;2.25;2.05;;;;;;;;;;5200487;27;20186;-70
2021/07/05 03:54:45;;;;;;;2.45;2.25;;;;;;;;;;5181095;27;20152;-70
2021/07/05 03:57:21;;;;;;;3.25;2.20;;;;;;;;;;5200168;27;20199;-70
2021/07/05 03:59:54;;;;;;;3.50;2.45;;;;;;;;;;5200400;27;20470;-69
2021/07/05 04:02:20;;;;;;;2.80;2.30;;;;;;;;;;5199987;27;20074;-70
2021/07/05 04:04:46;;;;;;;5.20;2.40;;;;;;;;;;5200376;27;20461;-70
2021/07/05 04:07:13;;;;;;;3.65;2.72;;;;;;;;;;5200260;27;20097;-67
2021/07/05 04:09:39;;;;;;;2.72;2.53;;;;;;;;;;5180925;27;20080;-66
2021/07/05 04:12:07;;;;;;;2.75;2.40;;;;;;;;;;5163995;27;20100;-70
2021/07/05 04:14:32;;;;;;;3.50;2.53;;;;;;;;;;5199978;27;20076;-70
2021/07/05 04:16:58;;;;;;;4.18;2.97;;;;;;;;;;5200240;27;20074;-70
2021/07/05 04:19:24;;;;;;;3.70;2.50;;;;;;;;;;5200252;27;20078;-66
2021/07/05 04:21:50;;;;;;;4.90;2.60;;;;;;;;;;5200176;27;20195;-68
2021/07/05 04:24:16;;;;;;;3.05;2.75;;;;;;;;;;5200776;27;20113;-67
2021/07/05 04:26:42;;;;;;;2.87;2.67;;;;;;;;;;5201822;27;20221;-67
2021/07/05 04:29:07;;;;;;;4.10;2.80;;;;;;;;;;5201395;27;20064;-67
2021/07/05 04:31:33;;;;;;;3.22;2.75;;;;;;;;;;5182586;27;20121;-67
2021/07/05 04:33:59;;;;;;;3.05;2.60;;;;;;;;;;5201341;27;20085;-67
2021/07/05 04:36:25;;;;;;;4.47;3.10;;;;;;;;;;5182516;27;20089;-68
2021/07/05 04:38:51;;;;;;;3.30;2.90;;;;;;;;;;5201330;27;20089;-67
2021/07/05 04:41:17;;;;;;;3.33;2.90;;;;;;;;;;5182330;27;20500;-67
2021/07/05 04:43:42;;;;;;;3.42;2.92;;;;;;;;;;5164583;27;20108;-67
2021/07/05 04:46:08;;;;;;;5.37;3.10;;;;;;;;;;5201500;27;20113;-67
2021/07/05 04:48:34;;;;;;;3.22;2.78;;;;;;;;;;5201362;27;20077;-70
2021/07/05 04:51:01;;;;;;;3.22;2.92;;;;;;;;;;5201504;27;20062;-70
2021/07/05 04:53:27;;;;;;;3.83;3.03;;;;;;;;;;5182530;27;20100;-70
2021/07/05 04:55:53;;;;;;;2.97;2.58;;;;;;;;;;5182031;27;20152;-70
2021/07/05 04:58:20;;;;;;;3.80;2.50;;;;;;;;;;5201192;27;20167;-70
2021/07/05 05:00:45;;;;;;;3.00;2.70;;;;;;;;;;5165178;27;20452;-71
2021/07/05 05:03:11;;;;;;;3.47;2.62;;;;;;;;;;5201447;27;20107;-71
2021/07/05 05:05:40;;;;;;;3.08;2.60;;;;;;;;;;5201556;27;20393;-71
2021/07/05 05:08:07;;;;;;;3.58;3.05;;;;;;;;;;5182731;27;20093;-70
2021/07/05 05:10:33;;;;;;;3.40;2.90;;;;;;;;;;5182194;27;20444;-71
2021/07/05 05:12:59;;;;;;;3.72;3.35;;;;;;;;;;5201301;27;20097;-67
2021/07/05 05:15:24;;;;;;;7.68;2.72;;;;;;;;;;5200850;27;20515;-67
2021/07/05 05:17:50;;;;;;;3.60;3.22;;;;;;;;;;5201103;27;20096;-70
2021/07/05 05:20:17;;;;;;;4.85;3.05;;;;;;;;;;5164808;27;20104;-69
2021/07/05 05:22:43;;;;;;;4.00;2.65;;;;;;;;;;5201312;27;20100;-69
2021/07/05 05:25:09;;;;;;;3.15;2.85;;;;;;;;;;5182240;27;20417;-69
2021/07/05 05:27:35;;;;;;;3.17;2.87;;;;;;;;;;5201520;27;20076;-73
2021/07/05 05:30:02;;;;;;;3.35;2.90;;;;;;;;;;5164820;27;20073;-70
2021/07/05 05:32:28;;;;;;;3.05;2.75;;;;;;;;;;5201172;27;20112;-69
2021/07/05 05:34:53;;;;;;;3.20;2.80;;;;;;;;;;5200847;27;20212;-70
2021/07/05 05:37:19;;;;;;;3.47;2.90;;;;;;;;;;5201018;27;20121;-71
2021/07/05 05:39:45;;;;;;;3.37;2.90;;;;;;;;;;5182214;27;20066;-70
2021/07/05 05:42:11;;;;;;;2.87;2.65;;;;;;;;;;5181639;27;20104;-70
2021/07/05 05:44:37;;;;;;;3.40;2.90;;;;;;;;;;5201302;27;20101;-70
2021/07/05 05:47:03;;;;;;;3.37;3.08;;;;;;;;;;5182125;27;20523;-67
2021/07/05 05:49:28;;;;;;;3.28;2.95;;;;;;;;;;5181918;27;20444;-67
2021/07/05 05:51:54;;;;;;;3.60;2.95;;;;;;;;;;5200955;27;20107;-67
2021/07/05 05:54:20;;;;;;;3.20;2.65;;;;;;;;;;5201019;27;20077;-67
2021/07/05 05:56:52;;;;;;;3.67;2.90;;;;;;;;;;5200920;27;20522;-67
2021/07/05 05:59:18;;;;;;;3.42;3.03;;;;;;;;;;5200964;27;20101;-67
2021/07/05 06:01:49;;;;;;;3.97;3.45;;;;;;;;;;5200839;27;20093;-70
2021/07/05 06:04:15;;;;;;;4.12;2.92;;;;;;;;;;5201046;27;20073;-71
2021/07/05 06:06:41;;;;;;;2.92;2.62;;;;;;;;;;5181808;27;20092;-70
2021/07/05 06:09:07;;;;;;;4.70;3.10;;;;;;;;;;5200565;27;20097;-71
2021/07/05 06:11:35;;;;;;;3.20;2.90;;;;;;;;;;5200927;27;20085;-71
2021/07/05 06:14:01;;;;;;;4.47;3.20;;;;;;;;;;5181968;27;20578;-71
2021/07/05 06:16:27;;;;;;;3.45;3.05;;;;;;;;;;5201553;27;20097;-70
2021/07/05 06:18:52;;;;;;;3.90;2.87;;;;;;;;;;5200758;27;20522;-70
2021/07/05 06:21:20;;;;;;;5.87;2.75;;;;;;;;;;5164160;27;20101;-70
2021/07/05 06:23:46;;;;;;;3.95;2.50;;;;;;;;;;5182069;27;20069;-67
2021/07/05 06:26:12;;;;;;;3.65;2.70;;;;;;;;;;5200841;27;20082;-67
2021/07/05 06:28:40;;;;;;;4.03;2.80;;;;;;;;;;5181463;27;20177;-67
2021/07/05 06:31:05;;;;;;;4.35;3.00;;;;;;;;;;5181629;27;20171;-67
2021/07/05 06:33:31;;;;;;;3.10;2.80;;;;;;;;;;5200576;27;20108;-66
2021/07/05 06:35:58;;;;;;;3.37;3.08;;;;;;;;;;5200600;27;20078;-67
2021/07/05 06:38:24;;;;;;;3.55;2.83;;;;;;;;;;5181604;27;20093;-71
2021/07/05 06:40:52;;;;;;;3.55;2.67;;;;;;;;;;5200854;27;20187;-70
2021/07/05 06:43:18;;;;;;;3.20;2.67;;;;;;;;;;5201366;27;20077;-72
2021/07/05 06:45:44;;;;;;;4.07;2.42;;;;;;;;;;5181500;27;20078;-72
2021/07/05 06:48:10;;;;;;;4.50;2.60;;;;;;;;;;5200409;27;20176;-72
2021/07/05 06:50:36;;;;;;;3.53;2.50;;;;;;;;;;5181264;27;20078;-72
2021/07/05 06:53:02;;;;;;;2.80;2.00;;;;;;;;;;5181797;27;20487;-71
2021/07/05 06:55:28;;;;;;;3.08;2.10;;;;;;;;;;5200254;27;20169;-72
2021/07/05 06:57:54;;;;;;;8.02;2.58;;;;;;;;;;5200478;27;20101;-70
2021/07/05 07:00:28;;;;;;;2.67;2.00;;;;;;;;;;5181331;27;20081;-70
2021/07/05 07:02:55;;;;;;;2.22;2.08;;;;;;;;;;5181491;27;20084;-70
2021/07/05 07:05:21;;;;;;;2.28;2.08;;;;;;;;;;5200764;27;20150;-70
2021/07/05 07:07:49;;;;;;;5.78;2.20;;;;;;;;;;5181255;27;20062;-68
2021/07/05 07:10:16;;;;;;;2.95;2.25;;;;;;;;;;5164098;27;20073;-68
2021/07/05 07:12:46;;;;;;;4.40;2.90;;;;;;;;;;5200441;27;20101;-68
2021/07/05 07:15:12;;;;;;;2.95;2.70;;;;;;;;;;5200306;27;20088;-68
2021/07/05 07:17:39;;;;;;;3.08;2.80;;;;;;;;;;5200605;27;20113;-69
2021/07/05 07:20:09;;;;;;;3.78;3.15;;;;;;;;;;5200688;27;20080;-68
2021/07/05 07:22:35;;;;;;;7.72;3.70;;;;;;;;;;5200646;27;20412;-68
2021/07/05 07:25:02;;;;;;;7.35;4.03;;;;;;;;;;5181462;27;20097;-68
2021/07/05 07:27:28;;;;;;;7.75;3.80;;;;;;;;;;5200788;27;20062;-68
2021/07/05 07:29:54;;;;;;;5.20;4.20;;;;;;;;;;5200271;27;20077;-69
2021/07/05 07:32:20;;;;;;;6.25;4.55;;;;;;;;;;5181102;27;20519;-69
2021/07/05 07:34:46;;;;;;;8.73;4.50;;;;;;;;;;5200197;27;20476;-68
2021/07/05 07:37:11;;;;;;;8.98;5.35;;;;;;;;;;5200511;27;20516;-68
2021/07/05 07:39:43;;;;;;;7.30;5.03;;;;;;;;;;5181236;27;20112;-68
2021/07/05 07:42:09;;;;;;;10.23;5.12;;;;;;;;;;5200238;27;20130;-68
2021/07/05 07:44:35;;;;;;;7.60;3.95;;;;;;;;;;5200242;27;20544;-68
2021/07/05 07:47:01;;;;;;;8.60;5.60;;;;;;;;;;5200280;27;20166;-72
2021/07/05 07:49:29;;;;;;;7.35;5.05;;;;;;;;;;5200223;27;20101;-68
2021/07/05 07:51:59;;;;;;;6.95;5.32;;;;;;;;;;5200216;27;20162;-68
2021/07/05 07:54:25;;;;;;;7.32;5.37;;;;;;;;;;5181412;27;20412;-67
2021/07/05 07:56:51;;;;;;;6.70;5.60;;;;;;;;;;5181123;27;20107;-71
2021/07/05 07:59:17;;;;;;;9.38;5.62;;;;;;;;;;5182158;27;20097;-71
2021/07/05 08:01:43;;;;;;;9.52;5.70;;;;;;;;;;5201637;27;20507;-72
2021/07/05 08:04:09;;;;;;;10.13;5.55;;;;;;;;;;5201911;27;20191;-71
2021/07/05 08:06:36;;;;;;;7.10;5.45;;;;;;;;;;5201671;27;20097;-71
2021/07/05 08:09:04;;;;;;;7.75;5.35;;;;;;;;;;5201643;27;20577;-68
2021/07/05 08:11:31;;;;;;;8.98;5.78;;;;;;;;;;5201850;27;20085;-68
2021/07/05 08:13:58;;;;;;;9.98;5.40;;;;;;;;;;5182826;27;20070;-68
2021/07/05 08:16:24;;;;;;;7.85;5.28;;;;;;;;;;5201757;27;20105;-68
2021/07/05 08:18:50;;;;;;;6.15;5.07;;;;;;;;;;5182363;27;20461;-66
2021/07/05 08:21:16;;;;;;;6.75;4.72;;;;;;;;;;5201483;27;20174;-66
2021/07/05 08:23:42;;;;;;;5.43;4.18;;;;;;;;;;5201680;27;20267;-71
2021/07/05 08:26:08;;;;;;;5.75;5.05;;;;;;;;;;5201534;27;20094;-71
2021/07/05 08:28:34;;;;;;;6.07;4.93;;;;;;;;;;5201569;27;20077;-71
2021/07/05 08:31:01;;;;;;;6.37;4.95;;;;;;;;;;5201436;27;20073;-71
2021/07/05 08:33:27;;;;;;;6.12;4.55;;;;;;;;;;5201469;27;20153;-71
2021/07/05 08:35:53;;;;;;;6.82;4.12;;;;;;;;;;5201293;27;20192;-68
2021/07/05 08:38:19;;;;;;;6.28;4.60;;;;;;;;;;5201513;27;20099;-68
2021/07/05 08:40:45;;;;;;;6.20;3.92;;;;;;;;;;5201416;27;20105;-66
2021/07/05 08:43:11;;;;;;;5.25;4.55;;;;;;;;;;5182180;27;20105;-68
2021/07/05 08:45:39;;;;;;;5.70;4.82;;;;;;;;;;5164846;27;20168;-69
2021/07/05 08:48:05;;;;;;;6.62;4.53;;;;;;;;;;5201479;27;20065;-69
2021/07/05 08:50:31;;;;;;;6.78;4.47;;;;;;;;;;5165259;27;20168;-69
2021/07/05 08:52:57;;;;;;;10.23;6.70;;;;;;;;;;5201497;27;20507;-68
2021/07/05 08:55:25;;;;;;;11.95;5.35;;;;;;;;;;5201220;27;20066;-67
2021/07/05 08:57:51;;;;;;;6.32;5.05;;;;;;;;;;5182285;27;20066;-67
2021/07/05 09:00:26;;;;;;;6.22;5.55;;;;;;;;;;5201468;27;20077;-67
2021/07/05 09:02:52;;;;;;;8.02;5.32;;;;;;;;;;5201263;27;20480;-68
2021/07/05 09:05:18;;;;;;;10.60;6.40;;;;;;;;;;5201053;27;20076;-67
2021/07/05 09:07:54;;;;;;;6.50;5.55;;;;;;;;;;5201182;27;20530;-70
2021/07/05 09:10:20;;;;;;;7.87;5.65;;;;;;;;;;5201418;27;20150;-70
2021/07/05 09:13:04;;;;;;;8.90;5.95;;;;;;;;;;5164757;27;20182;-70
2021/07/05 09:15:40;;;;;;;6.70;5.62;;;;;;;;;;5201012;27;20085;-70
2021/07/05 09:18:24;;;;;;;8.15;6.07;;;;;;;;;;5201351;27;20178;-67
2021/07/05 09:20:50;;;;;;;8.85;5.93;;;;;;;;;;5200966;27;20082;-66
2021/07/05 09:23:16;;;;;;;7.68;6.87;;;;;;;;;;5200965;27;20105;-66
2021/07/05 09:25:45;;;;;;;7.35;6.43;;;;;;;;;;5201371;27;20089;-66
2021/07/05 09:28:11;;;;;;;12.73;5.72;;;;;;;;;;5200952;27;20132;-66
2021/07/05 09:30:38;;;;;;;6.80;6.07;;;;;;;;;;5181682;27;20476;-66
2021/07/05 09:33:20;;;;;;;7.57;6.12;;;;;;;;;;5201137;27;20073;-66
2021/07/05 09:35:48;;;;;;;5.70;5.18;;;;;;;;;;5201363;27;20077;-67
2021/07/05 09:38:36;;;;;;;5.95;5.35;;;;;;;;;;5201045;27;20493;-66
2021/07/05 09:41:22;;;;;;;5.78;5.28;;;;;;;;;;5200847;27;20107;-66
2021/07/05 09:43:54;;;;;;;6.50;5.45;;;;;;;;;;5201013;27;20061;-66
2021/07/05 09:46:55;;;;;;;5.05;4.55;;;;;;;;;;5182582;27;20084;-67
2021/07/05 09:49:32;;;;;;;5.50;5.00;;;;;;;;;;5120732;27;20082;-67
2021/07/05 09:52:12;;;;;;;7.78;5.20;;;;;;;;;;5181720;27;20085;-68
2021/07/05 09:54:43;;;;;;;5.05;4.55;;;;;;;;;;5182120;27;20078;-66
2021/07/05 09:57:25;;;;;;;8.02;4.78;;;;;;;;;;5200939;27;20186;-66
2021/07/05 10:00:06;;;;;;;4.72;4.30;;;;;;;;;;5184254;27;20066;-66
2021/07/05 10:02:33;;;;;;;4.60;4.00;;;;;;;;;;5200927;27;20081;-66
2021/07/05 10:05:16;;;;;;;5.97;3.87;;;;;;;;;;5200516;27;20065;-66
2021/07/05 10:07:42;;;;;;;5.18;4.68;;;;;;;;;;5181827;27;20495;-66
2021/07/05 10:10:15;;;;;;;6.90;4.78;;;;;;;;;;5200814;27;20059;-66
2021/07/05 10:13:11;;;;;;;6.78;4.82;;;;;;;;;;5201302;27;20097;-66
2021/07/05 10:15:37;;;;;;;5.30;4.80;;;;;;;;;;5183111;27;20447;-67
2021/07/05 10:18:04;;;;;;;4.70;4.30;;;;;;;;;;5200911;27;20089;-66
2021/07/05 10:20:30;;;;;;;3.90;3.50;;;;;;;;;;5182098;27;20171;-70
2021/07/05 10:22:58;;;;;;;4.05;3.62;;;;;;;;;;5200750;27;20492;-69
2021/07/05 10:25:25;;;;;;;4.22;3.60;;;;;;;;;;5182238;27;20157;-70
2021/07/05 10:27:51;;;;;;;3.58;3.28;;;;;;;;;;5201445;27;20485;-69
2021/07/05 10:30:17;;;;;;;4.40;2.72;;;;;;;;;;5165628;27;20077;-69
2021/07/05 10:32:44;;;;;;;3.08;2.60;;;;;;;;;;5200937;27;20093;-69
2021/07/05 10:35:11;;;;;;;4.80;2.53;;;;;;;;;;5202185;27;20072;-69
2021/07/05 10:37:38;;;;;;;2.83;2.62;;;;;;;;;;5201790;27;20077;-69
2021/07/05 10:40:05;;;;;;;2.72;2.30;;;;;;;;;;5181756;27;20069;-69
2021/07/05 10:42:39;;;;;;;28.98;3.58;;;;;;;;;;5181720;27;20501;-69
2021/07/05 10:45:10;;;;;;;4.65;2.83;;;;;;;;;;5164803;27;20082;-70
2021/07/05 10:47:46;;;;;;;1.80;1.70;;;;;;;;;;5181603;27;20458;-70
2021/07/05 10:50:42;;;;;;;2.83;2.53;;;;;;;;;;5200864;27;20409;-70
2021/07/05 10:53:09;;;;;;;;;;;;;;;;;;5163399;27;20062;-70
2021/07/05 10:55:49;;;;;;;6.22;3.42;;;;;;;;;;5181976;27;19957;-71
2021/07/05 10:58:17;;;;;;;4.10;2.95;;;;;;;;;;5200582;27;20062;-68
2021/07/05 11:00:45;;;;;;;2.33;2.10;;;;;;;;;;5201083;27;20080;-66
2021/07/05 11:03:11;;;;;;;4.62;3.22;;;;;;;;;;5164262;27;20080;-66
2021/07/05 11:05:49;;;;;;;2.05;1.87;;;;;;;;;;5181128;27;20062;-68
2021/07/05 11:08:26;;;;;;;4.28;3.42;;;;;;;;;;5200597;27;20161;-66
2021/07/05 11:11:10;;;;;;;5.35;2.60;;;;;;;;;;5200924;27;20112;-68
2021/07/05 11:13:40;;;;;;;2.50;2.30;;;;;;;;;;5202064;27;20089;-71
2021/07/05 11:16:07;;;;;;;2.30;2.10;;;;;;;;;;5181446;27;20405;-71
2021/07/05 11:18:36;;;;;;;2.47;2.22;;;;;;;;;;5181373;27;20212;-70
2021/07/05 11:21:05;;;;;;;2.42;2.12;;;;;;;;;;5200320;27;20065;-69
2021/07/05 11:23:57;;;;;;;4.93;2.12;;;;;;;;;;5164042;27;20100;-70
2021/07/05 11:26:37;;;;;;;2.30;2.10;;;;;;;;;;5201041;27;20499;-71
2021/07/05 11:29:15;;;;;;;3.97;2.33;;;;;;;;;;5181495;27;20076;-70
2021/07/05 11:31:52;;;;;;;2.22;2.03;;;;;;;;;;5200685;27;20174;-70
2021/07/05 11:34:27;;;;;;;2.92;2.35;;;;;;;;;;5200439;27;20152;-71
2021/07/05 11:37:11;;;;;;;;;;;;;;;;;;5201197;27;20100;-72
2021/07/05 11:39:38;;;;;;;2.45;2.25;;;;;;;;;;5200323;27;20060;-71
2021/07/05 11:42:04;;;;;;;4.03;2.22;;;;;;;;;;5200439;27;20069;-70
2021/07/05 11:44:49;;;;;;;2.55;2.35;;;;;;;;;;5200391;27;20155;-68
2021/07/05 11:47:35;;;;;;;5.22;2.50;;;;;;;;;;5200642;27;20072;-68
2021/07/05 11:50:28;;;;;;;2.97;2.30;;;;;;;;;;5186009;27;20081;-67
2021/07/05 11:52:55;;;;;;;6.97;2.40;;;;;;;;;;5200995;27;20153;-68
2021/07/05 11:55:25;;;;;;;2.30;2.10;;;;;;;;;;5200604;27;20144;-68
2021/07/05 11:57:56;;;;;;;2.40;2.20;;;;;;;;;;5181629;27;20141;-68
2021/07/05 12:00:29;;;;;;;2.67;1.85;;;;;;;;;;5181635;27;20433;-68
2021/07/05 12:03:07;;;;;;;1.95;1.65;;;;;;;;;;5181982;27;20496;-68
2021/07/05 12:05:33;;;;;;;4.03;1.80;;;;;;;;;;5181686;27;20093;-68
2021/07/05 12:08:04;;;;;;;2.78;2.35;;;;;;;;;;5181412;27;20085;-69
2021/07/05 12:10:30;;;;;;;2.45;1.83;;;;;;;;;;5181395;27;20073;-68
2021/07/05 12:13:29;;;;;;;2.92;2.08;;;;;;;;;;5181283;27;20202;-68
2021/07/05 12:16:03;;;;;;;2.67;2.42;;;;;;;;;;5200234;27;20259;-68
2021/07/05 12:18:29;;;;;;;2.50;2.30;;;;;;;;;;5182194;27;20179;-68
2021/07/05 12:21:08;;;;;;;2.05;1.75;;;;;;;;;;5200317;27;20086;-68
2021/07/05 12:23:41;;;;;;;5.82;2.33;;;;;;;;;;5200471;27;20179;-68
2021/07/05 12:26:14;;;;;;;4.82;2.37;;;;;;;;;;5181646;27;20516;-67
2021/07/05 12:29:18;;;;;;;2.30;2.10;;;;;;;;;;5181376;27;20488;-68
2021/07/05 12:31:56;;;;;;;5.25;2.30;;;;;;;;;;5200509;27;20462;-71
2021/07/05 12:35:01;;;;;;;5.03;2.30;;;;;;;;;;5200708;27;20098;-70
2021/07/05 12:37:46;;;;;;;1.58;1.48;;;;;;;;;;5197033;27;20073;-68
2021/07/05 12:40:19;;;;;;;2.53;1.48;;;;;;;;;;5181166;27;20507;-68
2021/07/05 12:42:59;;;;;;;4.32;2.60;;;;;;;;;;5200618;27;20392;-68
2021/07/05 12:45:28;;;;;;;3.70;2.67;;;;;;;;;;5181965;27;20074;-67
2021/07/05 12:48:09;;;;;;;4.00;2.60;;;;;;;;;;5182660;27;20543;-68
2021/07/05 12:50:38;;;;;;;2.75;1.90;;;;;;;;;;5201826;27;20081;-69
2021/07/05 12:53:10;;;;;;;1.80;1.70;;;;;;;;;;5164806;27;20070;-68
2021/07/05 12:55:38;;;;;;;6.60;2.17;;;;;;;;;;5182525;27;20074;-68
2021/07/05 12:58:04;;;;;;;4.75;2.33;;;;;;;;;;5201569;27;20064;-68
2021/07/05 13:00:31;;;;;;;2.50;2.30;;;;;;;;;;5202003;27;20061;-68
2021/07/05 13:03:11;;;;;;;3.90;2.22;;;;;;;;;;5201614;27;20352;-69
2021/07/05 13:05:38;;;;;;;3.17;2.53;;;;;;;;;;5201449;27;20168;-69
2021/07/05 13:08:05;;;;;;;2.33;2.12;;;;;;;;;;5201403;27;20081;-69
2021/07/05 13:10:44;;;;;;;7.03;2.70;;;;;;;;;;5201604;27;20076;-68
2021/07/05 13:13:12;;;;;;;4.12;2.53;;;;;;;;;;5201421;27;20077;-69
2021/07/05 13:15:43;;;;;;;2.42;2.00;;;;;;;;;;5182395;27;20185;-69
2021/07/05 13:18:18;;;;;;;3.35;2.20;;;;;;;;;;5182533;27;20180;-72
2021/07/05 13:20:44;;;;;;;3.90;2.83;;;;;;;;;;5201417;27;20056;-72
2021/07/05 13:23:10;;;;;;;4.95;2.80;;;;;;;;;;5147795;27;20078;-69
2021/07/05 13:25:47;;;;;;;2.20;2.00;;;;;;;;;;5164795;27;20187;-68
2021/07/05 13:28:16;;;;;;;2.50;2.30;;;;;;;;;;5183543;27;20165;-70
2021/07/05 13:30:43;;;;;;;12.48;2.53;;;;;;;;;;5201328;27;20066;-68
2021/07/05 13:33:10;;;;;;;1.80;1.70;;;;;;;;;;5201264;27;20089;-69
2021/07/05 13:35:43;;;;;;;2.47;2.28;;;;;;;;;;5182057;27;20084;-66
2021/07/05 13:38:33;;;;;;;3.17;2.22;;;;;;;;;;5201141;27;20253;-65
2021/07/05 13:41:03;;;;;;;4.00;2.25;;;;;;;;;;5201135;27;20054;-67
2021/07/05 13:43:29;;;;;;;2.80;1.98;;;;;;;;;;5165244;27;20096;-66
2021/07/05 13:45:58;;;;;;;5.47;2.53;;;;;;;;;;5201333;27;20074;-67
2021/07/05 13:48:33;;;;;;;2.30;2.10;;;;;;;;;;5200987;27;20078;-67
2021/07/05 13:51:04;;;;;;;2.80;2.40;;;;;;;;;;5164092;27;20062;-67
2021/07/05 13:53:31;;;;;;;4.62;2.17;;;;;;;;;;5201386;27;20078;-72
2021/07/05 13:56:04;;;;;;;2.87;2.62;;;;;;;;;;5181626;27;20178;-71
2021/07/05 13:59:00;;;;;;;2.17;1.98;;;;;;;;;;5181866;27;20100;-63
2021/07/05 14:02:53;;;;;;;7.20;2.35;;;;;;;;;;5112911;28;20094;-62
2021/07/05 14:05:29;;;;;;;10.13;2.30;;;;;;;;;;5113448;28;20112;-65
2021/07/05 14:07:56;;;;;;;6.30;3.58;;;;;;;;;;5114286;28;20082;-65
2021/07/05 14:10:22;;;;;;;2.90;2.60;;;;;;;;;;5114201;28;20446;-64
2021/07/05 14:12:48;;;;;;;3.90;2.42;;;;;;;;;;5114550;28;20146;-65
2021/07/05 14:15:14;;;;;;;3.65;2.37;;;;;;;;;;5113903;27;20091;-65
2021/07/05 14:17:40;;;;;;;3.65;2.35;;;;;;;;;;5114705;28;20094;-65
2021/07/05 14:20:07;;;;;;;8.15;2.85;;;;;;;;;;5114299;28;20115;-65
2021/07/05 14:22:33;;;;;;;2.95;2.30;;;;;;;;;;5114072;28;20173;-65
2021/07/05 14:25:00;;;;;;;1.30;1.25;;;;;;;;;;5114267;27;20471;-65
2021/07/05 14:27:25;;;;;;;5.12;2.55;;;;;;;;;;5097346;28;20195;-65
2021/07/05 14:29:51;;;;;;;4.60;2.17;;;;;;;;;;5114362;27;20786;-65
2021/07/05 14:32:17;;;;;;;2.08;1.85;;;;;;;;;;5130513;27;20177;-64
2021/07/05 14:34:43;;;;;;;2.60;2.40;;;;;;;;;;5200436;27;20081;-64
2021/07/05 14:37:09;;;;;;;3.75;2.40;;;;;;;;;;5200647;27;20519;-65
2021/07/05 14:39:35;;;;;;;4.35;2.53;;;;;;;;;;5200079;27;20188;-64
2021/07/05 14:42:01;;;;;;;2.12;1.92;;;;;;;;;;5198574;27;20101;-64
2021/07/05 14:44:28;;;;;;;4.00;2.97;;;;;;;;;;5199869;27;20182;-64
2021/07/05 14:46:53;;;;;;;4.62;2.45;;;;;;;;;;5200506;27;20089;-65
2021/07/05 14:49:20;;;;;;;3.65;1.85;;;;;;;;;;5200289;27;20239;-64
2021/07/05 14:51:46;;;;;;;3.67;2.30;;;;;;;;;;5200072;27;20085;-64
2021/07/05 14:54:12;;;;;;;3.28;2.60;;;;;;;;;;5200326;27;20101;-68